Time;durP1;ratioP1;P1;durP2;ratioP2;P2;SDS_P1;SDS_P2;PMS_P1;PMS_P2;Temp;Humidity;BMP_temperature;BMP_pressure;BME280_temperature;BME280_humidity;BME280_pressure;Samples;Min_cycle;Max_cycle;Signal;HPM_P1;HPM_P2
2021/10/03 00:02:01;;;;;;;20.55;11.07;;;;;;;12.98;63.41;100916.22;5125490;27;20030;-64
2021/10/03 00:04:28;;;;;;;15.77;9.98;;;;;;;12.97;63.16;100917.22;5123038;28;20126;-64
2021/10/03 00:06:55;;;;;;;17.13;9.30;;;;;;;12.92;63.21;100906.84;5125333;28;20478;-65
2021/10/03 00:09:23;;;;;;;14.15;8.85;;;;;;;12.90;63.11;100898.03;5124567;27;20039;-64
2021/10/03 00:11:51;;;;;;;17.70;10.35;;;;;;;12.88;62.69;100899.16;5124743;27;20474;-64
2021/10/03 00:14:17;;;;;;;17.77;9.77;;;;;;;12.88;63.26;100896.47;5125020;27;20372;-64
2021/10/03 00:16:44;;;;;;;17.33;9.40;;;;;;;12.78;62.70;100890.19;5125381;28;20043;-65
2021/10/03 00:19:10;;;;;;;12.18;9.00;;;;;;;12.83;63.28;100896.03;5125379;27;20047;-64
2021/10/03 00:21:35;;;;;;;16.83;9.25;;;;;;;12.83;63.04;100899.56;5125351;27;20019;-65
2021/10/03 00:24:01;;;;;;;16.55;9.60;;;;;;;12.80;63.47;100896.31;5125259;27;20023;-64
2021/10/03 00:26:26;;;;;;;17.20;9.10;;;;;;;12.76;63.07;100906.47;5125181;28;20047;-64
2021/10/03 00:28:52;;;;;;;14.95;8.63;;;;;;;12.77;63.16;100905.47;5124285;28;20023;-64
2021/10/03 00:31:17;;;;;;;19.27;9.18;;;;;;;12.71;62.94;100891.72;5125061;28;20035;-65
2021/10/03 00:33:43;;;;;;;13.98;8.98;;;;;;;12.69;63.26;100893.69;5125561;27;20049;-64
2021/10/03 00:36:08;;;;;;;15.98;9.15;;;;;;;12.69;63.39;100896.38;5125538;27;20051;-64
2021/10/03 00:38:34;;;;;;;12.88;8.90;;;;;;;12.67;63.40;100892.97;5125466;27;20371;-64
2021/10/03 00:40:59;;;;;;;16.60;9.30;;;;;;;12.60;63.11;100889.09;5125446;27;20032;-64
2021/10/03 00:43:26;;;;;;;12.13;8.50;;;;;;;12.59;63.84;100887.41;5125064;28;20114;-64
2021/10/03 00:45:51;;;;;;;11.52;8.20;;;;;;;12.55;63.43;100888.66;5126503;28;20023;-64
2021/10/03 00:48:17;;;;;;;15.02;8.85;;;;;;;12.57;64.01;100900.13;5126146;27;20034;-64
2021/10/03 00:50:44;;;;;;;15.98;9.00;;;;;;;12.55;63.78;100894.91;5126647;27;20114;-64
2021/10/03 00:53:11;;;;;;;12.52;8.50;;;;;;;12.47;64.23;100893.84;5126285;27;20113;-64
2021/10/03 00:55:37;;;;;;;16.90;8.40;;;;;;;12.46;63.79;100892.13;5125180;28;20038;-64
2021/10/03 00:58:02;;;;;;;12.80;8.43;;;;;;;12.46;64.02;100892.13;5126499;27;20033;-64
2021/10/03 01:00:31;;;;;;;16.00;8.45;;;;;;;12.41;63.84;100891.69;5126410;28;20058;-64
2021/10/03 01:02:58;;;;;;;11.85;7.28;;;;;;;12.41;63.94;100897.09;5124910;28;20106;-64
2021/10/03 01:05:24;;;;;;;12.63;8.07;;;;;;;12.35;64.04;100893.06;5126513;27;20023;-64
2021/10/03 01:07:50;;;;;;;13.60;7.97;;;;;;;12.35;63.83;100894.91;5126497;27;20033;-64
2021/10/03 01:10:22;;;;;;;12.38;7.68;;;;;;;12.35;64.17;100905.69;5129202;27;20062;-64
2021/10/03 01:13:11;;;;;;;12.07;7.43;;;;;;;12.31;64.00;100893.44;5129095;27;20035;-65
2021/10/03 01:15:40;;;;;;;12.88;7.47;;;;;;;12.26;63.63;100893.00;5129184;27;20438;-64
2021/10/03 01:18:07;;;;;;;14.68;7.95;;;;;;;12.27;63.80;100894.72;5128227;27;20047;-64
2021/10/03 01:20:34;;;;;;;12.88;8.07;;;;;;;12.23;64.16;100886.06;5129762;27;20023;-64
2021/10/03 01:23:03;;;;;;;13.77;7.72;;;;;;;12.24;63.80;100882.38;5129605;27;20054;-64
2021/10/03 01:25:31;;;;;;;15.00;7.85;;;;;;;12.19;63.97;100879.22;5128350;27;20478;-65
2021/10/03 01:27:57;;;;;;;11.65;7.35;;;;;;;12.14;63.96;100878.78;5129549;27;20054;-64
2021/10/03 01:30:25;;;;;;;15.65;8.13;;;;;;;12.10;64.37;100882.72;5129404;27;20398;-64
2021/10/03 01:32:51;;;;;;;10.77;7.60;;;;;;;12.10;64.11;100884.53;5127711;27;20061;-64
2021/10/03 01:35:17;;;;;;;12.32;7.45;;;;;;;12.08;64.69;100889.19;5129630;27;20063;-65
2021/10/03 01:37:42;;;;;;;13.52;7.35;;;;;;;12.05;64.26;100884.06;5129926;27;20039;-63
2021/10/03 01:40:10;;;;;;;13.02;8.25;;;;;;;12.01;64.70;100885.31;5129124;27;20060;-63
2021/10/03 01:42:36;;;;;;;9.77;7.13;;;;;;;11.90;64.40;100874.63;5129329;27;20023;-64
2021/10/03 01:45:05;;;;;;;12.60;7.30;;;;;;;11.97;64.09;100881.19;5127513;27;20019;-63
2021/10/03 01:47:30;;;;;;;12.52;7.07;;;;;;;11.94;64.67;100887.69;5129020;27;20019;-63
2021/10/03 01:49:56;;;;;;;11.18;7.55;;;;;;;11.92;64.47;100886.94;5129484;27;20091;-63
2021/10/03 01:52:22;;;;;;;12.85;6.97;;;;;;;11.88;64.60;100887.34;5128993;27;20447;-64
2021/10/03 01:54:48;;;;;;;9.93;7.00;;;;;;;11.84;64.37;100877.84;5129209;27;20110;-64
2021/10/03 01:57:13;;;;;;;10.88;7.25;;;;;;;11.83;65.09;100895.78;5127945;27;20059;-64
2021/10/03 01:59:40;;;;;;;11.60;7.10;;;;;;;11.81;64.74;100889.69;5129282;27;20107;-64
2021/10/03 02:02:06;;;;;;;11.13;6.55;;;;;;;11.78;65.03;100881.91;5127688;27;20470;-64
2021/10/03 02:04:32;;;;;;;9.80;6.63;;;;;;;11.74;64.91;100882.28;5127595;27;20027;-64
2021/10/03 02:06:58;;;;;;;11.63;7.18;;;;;;;11.75;64.74;100886.66;5129128;27;20035;-64
2021/10/03 02:09:27;;;;;;;13.70;7.07;;;;;;;11.72;64.92;100884.22;5126699;27;20054;-64
2021/10/03 02:11:58;;;;;;;10.32;6.70;;;;;;;11.70;64.52;100880.84;5128471;27;20506;-64
2021/10/03 02:14:30;;;;;;;11.68;7.10;;;;;;;11.67;64.82;100887.28;5127606;27;20091;-64
2021/10/03 02:17:00;;;;;;;11.52;6.22;;;;;;;11.61;65.31;100887.81;5128638;27;20026;-64
2021/10/03 02:19:27;;;;;;;9.50;6.63;;;;;;;11.60;65.17;100895.97;5127223;27;20053;-64
2021/10/03 02:21:54;;;;;;;14.95;6.45;;;;;;;11.57;65.04;100892.56;5126909;27;20019;-64
2021/10/03 02:24:20;;;;;;;9.63;5.78;;;;;;;11.57;65.30;100900.63;5128102;27;20045;-64
2021/10/03 02:26:46;;;;;;;11.68;6.82;;;;;;;11.55;64.95;100899.03;5127787;27;20033;-64
2021/10/03 02:29:12;;;;;;;8.90;6.07;;;;;;;11.51;65.36;100894.88;5127859;27;20518;-64
2021/10/03 02:31:37;;;;;;;10.85;6.30;;;;;;;11.47;65.64;100902.38;5128131;27;20483;-64
2021/10/03 02:34:04;;;;;;;15.52;6.28;;;;;;;11.45;65.32;100896.25;5127065;27;20059;-64
2021/10/03 02:36:30;;;;;;;10.13;5.50;;;;;;;11.46;65.38;100908.72;5127424;27;20102;-64
2021/10/03 02:38:56;;;;;;;11.02;6.65;;;;;;;11.42;65.44;100898.34;5126422;27;20019;-64
2021/10/03 02:41:23;;;;;;;12.57;6.45;;;;;;;11.45;65.51;100906.16;5125457;27;20092;-64
2021/10/03 02:43:54;;;;;;;10.18;6.22;;;;;;;11.42;65.28;100911.78;5127712;27;20478;-64
2021/10/03 02:46:23;;;;;;;14.90;5.97;;;;;;;11.41;65.47;100904.69;5127228;27;20034;-64
2021/10/03 02:48:50;;;;;;;12.52;7.03;;;;;;;11.36;66.02;100902.38;5126447;27;20371;-64
2021/10/03 02:51:23;;;;;;;9.27;5.90;;;;;;;11.33;65.94;100899.09;5126160;27;20088;-64
2021/10/03 02:53:49;;;;;;;10.18;6.35;;;;;;;11.33;66.29;100908.03;5127584;27;20039;-64
2021/10/03 02:56:17;;;;;;;14.00;6.00;;;;;;;11.30;65.90;100905.59;5126384;27;20038;-64
2021/10/03 02:58:43;;;;;;;13.13;6.35;;;;;;;11.27;66.71;100905.81;5127425;27;20043;-65
2021/10/03 03:01:10;;;;;;;11.60;6.57;;;;;;;11.26;66.88;100914.84;5127041;27;20023;-64
2021/10/03 03:03:36;;;;;;;11.80;6.10;;;;;;;11.22;67.14;100909.84;5127537;27;20023;-64
2021/10/03 03:06:06;;;;;;;11.00;6.35;;;;;;;11.19;66.65;100902.06;5127319;27;20026;-64
2021/10/03 03:08:31;;;;;;;9.65;6.65;;;;;;;11.18;67.29;100909.25;5124009;27;20025;-64
2021/10/03 03:10:57;;;;;;;10.50;6.03;;;;;;;11.16;66.97;100908.50;5126893;27;20026;-64
2021/10/03 03:13:23;;;;;;;9.52;6.10;;;;;;;11.13;67.32;100903.38;5127227;27;20050;-65
2021/10/03 03:15:48;;;;;;;10.32;6.53;;;;;;;11.10;67.17;100898.25;5126920;27;20106;-64
2021/10/03 03:18:14;;;;;;;9.63;6.28;;;;;;;11.11;67.34;100909.88;5126978;27;20051;-65
2021/10/03 03:20:39;;;;;;;9.25;6.25;;;;;;;11.11;67.67;100902.69;5127309;27;20027;-64
2021/10/03 03:23:05;;;;;;;10.13;5.78;;;;;;;11.09;67.36;100901.06;5125663;27;20022;-64
2021/10/03 03:25:30;;;;;;;11.68;6.03;;;;;;;11.10;67.54;100894.75;5127468;27;20039;-64
2021/10/03 03:27:56;;;;;;;8.60;5.60;;;;;;;11.10;67.42;100897.44;5127360;27;20031;-64
2021/10/03 03:30:22;;;;;;;12.00;6.32;;;;;;;11.10;67.78;100892.06;5127028;27;20409;-64
2021/10/03 03:32:47;;;;;;;9.05;5.50;;;;;;;11.07;67.52;100886.94;5126886;27;20539;-64
2021/10/03 03:35:13;;;;;;;10.40;5.75;;;;;;;11.08;67.90;100894.88;5127914;27;20023;-64
2021/10/03 03:37:39;;;;;;;8.60;5.75;;;;;;;11.07;67.61;100895.81;5127442;27;20161;-64
2021/10/03 03:40:07;;;;;;;13.05;6.30;;;;;;;11.07;67.97;100886.94;5125506;27;20022;-64
2021/10/03 03:42:32;;;;;;;8.75;5.00;;;;;;;11.05;67.83;100892.44;5125725;27;20052;-64
2021/10/03 03:44:58;;;;;;;9.45;5.30;;;;;;;11.06;68.19;100898.66;5126946;27;20031;-64
2021/10/03 03:47:23;;;;;;;9.85;5.25;;;;;;;11.05;67.92;100886.19;5126928;27;20030;-64
2021/10/03 03:49:51;;;;;;;11.07;5.45;;;;;;;11.04;68.05;100888.06;5125649;27;20493;-64
2021/10/03 03:52:18;;;;;;;8.18;5.68;;;;;;;11.04;67.84;100898.78;5126500;27;20042;-64
2021/10/03 03:54:43;;;;;;;11.23;5.40;;;;;;;11.04;68.04;100889.88;5127197;27;20031;-64
2021/10/03 03:57:09;;;;;;;11.30;5.60;;;;;;;11.03;67.93;100890.84;5126684;27;20534;-64
2021/10/03 03:59:34;;;;;;;10.65;5.57;;;;;;;11.00;68.38;100891.94;5126952;27;20513;-64
2021/10/03 04:02:00;;;;;;;11.88;5.95;;;;;;;10.96;68.74;100893.16;5125484;27;20027;-64
2021/10/03 04:04:25;;;;;;;13.65;6.55;;;;;;;10.94;68.32;100892.41;5126644;27;20021;-64
2021/10/03 04:06:50;;;;;;;10.18;6.38;;;;;;;10.94;68.16;100892.41;5126774;27;20401;-64
2021/10/03 04:09:16;;;;;;;11.63;6.55;;;;;;;10.95;68.50;100896.84;5126588;28;20027;-64
2021/10/03 04:11:41;;;;;;;10.45;5.63;;;;;;;10.93;68.53;100887.22;5126971;27;20423;-64
2021/10/03 04:14:07;;;;;;;9.55;5.93;;;;;;;10.94;68.43;100886.22;5126804;28;20043;-64
2021/10/03 04:16:32;;;;;;;10.80;6.00;;;;;;;10.90;68.57;100896.34;5125514;27;20023;-64
2021/10/03 04:18:58;;;;;;;12.43;6.47;;;;;;;10.86;68.66;100889.50;5126594;28;20051;-64
2021/10/03 04:21:23;;;;;;;10.73;5.45;;;;;;;10.86;68.55;100896.69;5126186;27;20528;-64
2021/10/03 04:23:49;;;;;;;11.35;6.10;;;;;;;10.84;68.68;100891.44;5126726;28;20496;-64
2021/10/03 04:26:14;;;;;;;10.45;6.53;;;;;;;10.82;68.90;100887.19;5126722;28;20019;-64
2021/10/03 04:28:39;;;;;;;12.80;6.50;;;;;;;10.81;69.18;100896.22;5126535;27;20035;-64
2021/10/03 04:31:05;;;;;;;9.85;6.07;;;;;;;10.78;69.08;100886.59;5126957;27;20031;-64
2021/10/03 04:33:30;;;;;;;11.50;5.75;;;;;;;10.73;69.30;100882.56;5124283;28;20027;-64
2021/10/03 04:35:56;;;;;;;10.15;6.32;;;;;;;10.77;69.42;100886.72;5125338;28;20500;-64
2021/10/03 04:38:21;;;;;;;10.07;5.95;;;;;;;10.74;69.36;100884.28;5126529;27;20027;-64
2021/10/03 04:40:47;;;;;;;10.32;6.45;;;;;;;10.73;69.53;100880.72;5126806;28;20033;-64
2021/10/03 04:43:12;;;;;;;11.38;7.18;;;;;;;10.74;69.28;100895.84;5125516;27;20023;-64
2021/10/03 04:45:41;;;;;;;13.60;6.63;;;;;;;10.71;69.58;100890.72;5130376;27;20312;-64
2021/10/03 04:48:07;;;;;;;8.85;5.97;;;;;;;10.69;69.79;100895.38;5128890;27;20048;-64
2021/10/03 04:50:33;;;;;;;11.35;6.18;;;;;;;10.66;69.83;100884.88;5130813;27;20066;-63
2021/10/03 04:52:58;;;;;;;10.73;6.65;;;;;;;10.67;69.87;100888.41;5130115;27;20477;-63
2021/10/03 04:55:24;;;;;;;9.98;6.65;;;;;;;10.66;69.90;100892.94;5130278;27;20023;-64
2021/10/03 04:57:50;;;;;;;11.60;6.63;;;;;;;10.54;70.17;100875.13;5130479;27;20062;-63
2021/10/03 05:00:16;;;;;;;13.68;6.82;;;;;;;10.64;69.93;100894.88;5130397;27;20018;-63
2021/10/03 05:02:41;;;;;;;10.13;6.28;;;;;;;10.63;69.97;100900.34;5130502;27;20394;-64
2021/10/03 05:05:07;;;;;;;12.80;6.78;;;;;;;10.62;70.39;100907.56;5128905;27;20027;-63
2021/10/03 05:07:33;;;;;;;15.48;7.30;;;;;;;10.60;70.35;100896.09;5128874;27;20098;-64
2021/10/03 05:10:00;;;;;;;8.82;7.10;;;;;;;10.63;70.52;100903.03;5122857;27;20567;-64
2021/10/03 05:12:26;;;;;;;14.82;6.95;;;;;;;10.64;70.67;100900.22;5115938;27;20430;-64
2021/10/03 05:14:51;;;;;;;13.05;6.50;;;;;;;10.63;70.68;100903.91;5124762;27;20055;-64
2021/10/03 05:17:17;;;;;;;11.70;6.85;;;;;;;10.66;70.56;100903.66;5124735;27;20039;-64
2021/10/03 05:19:42;;;;;;;11.82;6.45;;;;;;;10.66;70.61;100906.34;5125281;27;20046;-64
2021/10/03 05:22:08;;;;;;;11.00;6.60;;;;;;;10.65;70.25;100906.47;5126127;27;20153;-63
2021/10/03 05:24:33;;;;;;;10.88;7.38;;;;;;;10.64;70.61;100905.59;5124523;27;20019;-63
2021/10/03 05:26:59;;;;;;;13.20;7.13;;;;;;;10.67;70.70;100917.91;5125430;27;20045;-64
2021/10/03 05:29:24;;;;;;;12.80;6.90;;;;;;;10.66;70.26;100903.66;5125940;27;20050;-63
2021/10/03 05:31:50;;;;;;;15.43;8.05;;;;;;;10.70;70.76;100915.84;5126188;27;20055;-64
2021/10/03 05:34:16;;;;;;;13.82;7.57;;;;;;;10.70;70.58;100915.84;5124552;27;20106;-63
2021/10/03 05:36:41;;;;;;;15.10;7.15;;;;;;;10.66;70.43;100909.03;5126079;27;20425;-63
2021/10/03 05:39:07;;;;;;;14.52;7.53;;;;;;;10.73;70.73;100920.97;5124922;27;20023;-63
2021/10/03 05:41:32;;;;;;;11.70;7.80;;;;;;;10.73;70.96;100925.47;5124608;27;20034;-63
2021/10/03 05:43:58;;;;;;;9.88;6.80;;;;;;;10.75;70.79;100921.72;5126706;27;20477;-64
2021/10/03 05:46:23;;;;;;;12.38;7.95;;;;;;;10.76;70.93;100926.09;5125915;27;20514;-63
2021/10/03 05:48:49;;;;;;;13.57;7.78;;;;;;;10.78;70.81;100923.31;5126160;27;20055;-63
2021/10/03 05:51:15;;;;;;;14.48;7.70;;;;;;;10.79;70.81;100920.50;5124998;27;20039;-63
2021/10/03 05:53:40;;;;;;;14.68;7.70;;;;;;;10.84;70.66;100912.91;5125949;27;20030;-64
2021/10/03 05:56:06;;;;;;;11.98;7.60;;;;;;;10.85;70.88;100914.66;5124210;27;20035;-64
2021/10/03 05:58:33;;;;;;;15.38;8.38;;;;;;;10.86;70.94;100918.16;5124998;27;20061;-64
2021/10/03 06:01:02;;;;;;;10.13;7.93;;;;;;;10.86;70.90;100919.03;5125778;27;20438;-64
2021/10/03 06:03:27;;;;;;;13.43;7.28;;;;;;;10.91;70.80;100914.16;5123830;27;20039;-64
2021/10/03 06:05:52;;;;;;;14.80;8.18;;;;;;;10.95;70.75;100915.63;5125232;27;20236;-64
2021/10/03 06:08:18;;;;;;;13.32;8.00;;;;;;;11.00;71.15;100926.00;5124970;27;20529;-64
2021/10/03 06:10:44;;;;;;;13.18;8.10;;;;;;;11.03;71.42;100923.91;5120857;27;20026;-64
2021/10/03 06:13:11;;;;;;;14.10;8.05;;;;;;;11.08;70.88;100918.16;5126008;27;20023;-63
2021/10/03 06:15:42;;;;;;;10.23;7.53;;;;;;;11.16;71.88;100921.09;5124684;27;20027;-64
2021/10/03 06:18:17;;;;;;;13.80;8.18;;;;;;;11.20;71.41;100915.38;5125477;27;20069;-64
2021/10/03 06:20:43;;;;;;;12.60;7.72;;;;;;;11.29;70.75;100914.59;5124665;27;20035;-64
2021/10/03 06:23:09;;;;;;;14.32;7.88;;;;;;;11.37;70.81;100920.22;5125500;27;20067;-64
2021/10/03 06:25:35;;;;;;;15.13;8.25;;;;;;;11.45;70.92;100914.22;5124479;27;20044;-64
2021/10/03 06:28:00;;;;;;;11.55;8.15;;;;;;;11.58;70.33;100931.03;5125529;27;20042;-64
2021/10/03 06:30:26;;;;;;;14.85;8.65;;;;;;;11.66;70.51;100933.09;5124459;27;20058;-64
2021/10/03 06:32:51;;;;;;;15.45;9.00;;;;;;;11.74;69.81;100930.66;5125136;27;20431;-64
2021/10/03 06:35:17;;;;;;;11.93;8.93;;;;;;;11.84;70.26;100929.75;5125919;27;20570;-64
2021/10/03 06:37:42;;;;;;;14.27;9.20;;;;;;;11.95;69.42;100929.72;5125464;27;20129;-64
2021/10/03 06:40:09;;;;;;;13.30;9.55;;;;;;;12.06;68.94;100931.50;5126323;27;20034;-64
2021/10/03 06:42:34;;;;;;;14.50;8.73;;;;;;;12.20;68.53;100920.41;5125073;27;20023;-64
2021/10/03 06:45:00;;;;;;;12.32;9.00;;;;;;;12.30;67.57;100924.03;5126699;27;20037;-65
2021/10/03 06:47:25;;;;;;;15.27;9.02;;;;;;;12.45;67.26;100928.09;5124901;27;20035;-64
2021/10/03 06:49:51;;;;;;;16.38;8.77;;;;;;;12.59;66.55;100919.69;5124486;27;20047;-64
2021/10/03 06:52:16;;;;;;;15.07;9.27;;;;;;;12.80;66.29;100934.00;5125105;27;20043;-64
2021/10/03 06:54:42;;;;;;;12.73;8.35;;;;;;;12.97;65.81;100930.66;5125874;27;20031;-65
2021/10/03 06:57:07;;;;;;;18.38;9.43;;;;;;;13.14;64.93;100927.34;5125616;27;20035;-64
2021/10/03 06:59:33;;;;;;;12.32;8.57;;;;;;;13.35;64.56;100925.47;5125344;27;20138;-64
2021/10/03 07:02:02;;;;;;;11.35;8.35;;;;;;;13.55;63.29;100919.94;5124151;27;20035;-64
2021/10/03 07:04:30;;;;;;;12.40;8.77;;;;;;;13.78;62.77;100928.66;5123895;27;20031;-64
2021/10/03 07:06:58;;;;;;;13.20;9.30;;;;;;;13.98;62.43;100908.78;5125483;27;20459;-64
2021/10/03 07:09:23;;;;;;;11.45;8.10;;;;;;;14.22;61.85;100911.06;5127144;27;20529;-64
2021/10/03 07:11:49;;;;;;;14.23;8.90;;;;;;;14.45;61.43;100916.00;5122737;27;20050;-64
2021/10/03 07:14:14;;;;;;;13.25;7.57;;;;;;;14.67;60.47;100913.00;5127602;27;20027;-64
2021/10/03 07:16:39;;;;;;;15.20;7.93;;;;;;;14.94;59.37;100921.16;5127492;27;20019;-64
2021/10/03 07:19:05;;;;;;;13.25;8.45;;;;;;;15.15;59.37;100918.22;5126864;27;20088;-64
2021/10/03 07:21:30;;;;;;;18.33;8.02;;;;;;;15.43;58.59;100912.72;5125442;27;20118;-64
2021/10/03 07:23:56;;;;;;;11.35;8.15;;;;;;;15.74;57.67;100914.06;5123956;27;20039;-64
2021/10/03 07:26:21;;;;;;;13.45;7.35;;;;;;;16.07;56.69;100908.97;5122984;27;20047;-64
2021/10/03 07:28:47;;;;;;;16.15;8.52;;;;;;;16.52;54.56;100907.00;5126261;27;20066;-64
2021/10/03 07:31:13;;;;;;;13.35;7.63;;;;;;;17.32;52.20;100907.47;5125868;27;20034;-64
2021/10/03 07:33:38;;;;;;;11.95;7.05;;;;;;;18.40;50.04;100906.34;5125732;27;20494;-64
2021/10/03 07:36:04;;;;;;;12.15;7.43;;;;;;;19.29;47.38;100901.59;5126649;27;20026;-64
2021/10/03 07:38:29;;;;;;;9.90;6.90;;;;;;;20.15;45.40;100905.88;5124627;27;20058;-64
2021/10/03 07:40:55;;;;;;;9.45;5.65;;;;;;;21.35;42.36;100893.75;5125895;27;20411;-64
2021/10/03 07:43:20;;;;;;;13.82;5.95;;;;;;;22.20;40.60;100890.16;5124761;27;20035;-64
2021/10/03 07:45:46;;;;;;;8.75;6.38;;;;;;;23.06;38.80;100884.34;5125737;27;20038;-65
2021/10/03 07:48:11;;;;;;;12.85;6.20;;;;;;;23.54;37.52;100891.56;5125636;27;20035;-65
2021/10/03 07:50:37;;;;;;;10.05;6.20;;;;;;;24.05;36.44;100880.97;5124162;27;20378;-65
2021/10/03 07:53:02;;;;;;;12.20;6.60;;;;;;;24.65;35.47;100883.59;5125539;27;20050;-65
2021/10/03 07:55:31;;;;;;;13.38;6.20;;;;;;;25.13;34.41;100882.25;5123054;27;20019;-65
2021/10/03 07:58:07;;;;;;;12.38;6.57;;;;;;;25.56;33.63;100871.56;5123348;27;20031;-64
2021/10/03 08:00:34;;;;;;;9.65;5.88;;;;;;;26.02;32.89;100866.69;5124778;27;20265;-65
2021/10/03 08:02:59;;;;;;;9.15;5.70;;;;;;;26.53;32.37;100870.94;5124028;27;20074;-65
2021/10/03 08:05:25;;;;;;;10.77;5.68;;;;;;;27.06;31.20;100873.22;5122917;28;20080;-65
2021/10/03 08:07:50;;;;;;;11.05;5.63;;;;;;;27.54;30.27;100860.41;5123998;27;20403;-65
2021/10/03 08:10:16;;;;;;;10.95;5.88;;;;;;;27.60;30.36;100857.53;5124905;27;20095;-65
2021/10/03 08:12:41;;;;;;;9.43;5.47;;;;;;;27.93;29.96;100873.69;5119452;27;20291;-65
2021/10/03 08:15:08;;;;;;;12.00;5.03;;;;;;;28.24;29.25;100854.94;5125627;27;20027;-64
2021/10/03 08:17:34;;;;;;;13.20;5.90;;;;;;;27.55;30.25;100854.66;5124510;27;20049;-64
2021/10/03 08:19:59;;;;;;;9.20;5.32;;;;;;;26.52;31.70;100860.16;5127693;27;20348;-64
2021/10/03 08:22:25;;;;;;;11.25;5.47;;;;;;;25.51;33.37;100876.88;5128819;27;20023;-64
2021/10/03 08:24:50;;;;;;;11.05;6.18;;;;;;;24.61;34.39;100875.97;5129491;27;20023;-64
2021/10/03 08:27:16;;;;;;;11.85;5.80;;;;;;;23.92;35.73;100875.44;5128954;27;20035;-64
2021/10/03 08:29:41;;;;;;;9.20;5.88;;;;;;;23.30;36.70;100888.50;5128918;27;20427;-64
2021/10/03 08:32:07;;;;;;;10.43;6.22;;;;;;;22.78;37.97;100879.94;5129300;27;20046;-64
2021/10/03 08:34:32;;;;;;;9.27;5.78;;;;;;;22.45;38.66;100893.34;5127710;27;20035;-64
2021/10/03 08:36:58;;;;;;;12.27;6.07;;;;;;;22.37;39.22;100885.25;5129558;27;20035;-64
2021/10/03 08:39:23;;;;;;;9.27;5.35;;;;;;;23.30;37.33;100880.28;5128346;27;20057;-64
2021/10/03 08:41:49;;;;;;;9.85;5.80;;;;;;;24.82;35.41;100871.13;5127919;27;20530;-64
2021/10/03 08:44:16;;;;;;;11.95;5.60;;;;;;;26.24;33.34;100868.84;5128243;27;20490;-64
2021/10/03 08:46:42;;;;;;;11.88;6.03;;;;;;;27.51;31.09;100858.97;5128936;27;20091;-65
2021/10/03 08:49:07;;;;;;;10.63;5.75;;;;;;;28.62;29.55;100859.25;5129859;27;20027;-65
2021/10/03 08:51:33;;;;;;;10.65;5.25;;;;;;;29.74;28.18;100854.06;5129582;27;20034;-65
2021/10/03 08:53:58;;;;;;;8.18;4.70;;;;;;;30.63;26.77;100854.88;5128582;27;20035;-65
2021/10/03 08:56:25;;;;;;;8.52;5.18;;;;;;;31.40;25.77;100853.00;5126985;27;20027;-65
2021/10/03 08:58:51;;;;;;;9.63;5.05;;;;;;;31.96;25.21;100855.41;5129783;27;20039;-65
2021/10/03 09:01:18;;;;;;;9.07;4.50;;;;;;;32.58;24.67;100848.22;5130368;27;20031;-66
2021/10/03 09:03:44;;;;;;;7.07;4.28;;;;;;;33.04;24.58;100849.41;5129547;27;20035;-66
2021/10/03 09:06:10;;;;;;;13.63;4.93;;;;;;;33.35;24.04;100844.84;5129354;27;20023;-65
2021/10/03 09:08:42;;;;;;;9.93;5.43;;;;;;;33.67;23.28;100843.63;5128703;27;20055;-66
2021/10/03 09:11:12;;;;;;;12.50;5.07;;;;;;;33.92;23.36;100832.56;5124702;27;20117;-65
2021/10/03 09:13:37;;;;;;;9.15;4.60;;;;;;;34.21;22.90;100821.75;5126589;27;20055;-66
2021/10/03 09:16:17;;;;;;;31.17;27.52;;;;;;;34.37;22.54;100826.25;5126771;27;20519;-65
2021/10/03 09:18:52;;;;;;;15.95;6.45;;;;;;;34.37;22.41;100823.47;5124813;27;20055;-66
2021/10/03 09:21:29;;;;;;;11.10;6.72;;;;;;;34.18;22.82;100825.09;5127838;27;20470;-66
2021/10/03 09:24:15;;;;;;;12.50;5.00;;;;;;;34.01;23.30;100830.09;5127601;27;20410;-66
2021/10/03 09:27:03;;;;;;;7.65;5.18;;;;;;;34.03;23.04;100816.72;5126253;27;20015;-66
2021/10/03 09:29:33;;;;;;;8.32;4.82;;;;;;;33.82;23.37;100815.81;5124788;27;20038;-65
2021/10/03 09:32:15;;;;;;;15.13;5.18;;;;;;;33.82;23.16;100824.16;5128233;27;20115;-66
2021/10/03 09:34:47;;;;;;;6.78;4.60;;;;;;;33.71;23.45;100827.19;5127705;27;20043;-66
2021/10/03 09:37:16;;;;;;;7.80;4.82;;;;;;;33.83;23.20;100817.50;5128975;27;20034;-66
2021/10/03 09:39:42;;;;;;;10.52;5.03;;;;;;;33.86;23.40;100813.34;5128218;27;20057;-66
2021/10/03 09:42:15;;;;;;;7.88;4.45;;;;;;;33.79;23.11;100807.19;5127746;27;20038;-66
2021/10/03 09:45:04;;;;;;;10.07;4.93;;;;;;;33.50;23.56;100808.78;5126759;27;20164;-66
2021/10/03 09:47:29;;;;;;;9.02;4.63;;;;;;;33.12;23.88;100812.75;5125719;27;20410;-66
2021/10/03 09:49:56;;;;;;;7.78;4.93;;;;;;;32.59;24.56;100811.00;5126304;27;20037;-66
2021/10/03 09:52:23;;;;;;;8.73;4.72;;;;;;;31.69;25.65;100821.19;5127508;27;20535;-66
2021/10/03 09:54:49;;;;;;;10.15;5.10;;;;;;;30.89;26.41;100825.69;5126271;27;20095;-65
2021/10/03 09:57:18;;;;;;;13.50;5.30;;;;;;;29.75;27.61;100828.91;5126711;27;20366;-65
2021/10/03 09:59:45;;;;;;;13.35;5.03;;;;;;;28.79;28.96;100838.94;5127092;27;20096;-66
2021/10/03 10:02:12;;;;;;;10.23;5.15;;;;;;;28.01;30.29;100830.03;5128292;27;20040;-65
2021/10/03 10:04:38;;;;;;;9.15;5.05;;;;;;;27.14;31.49;100837.13;5126716;27;20062;-65
2021/10/03 10:07:04;;;;;;;9.95;5.13;;;;;;;26.48;32.60;100840.50;5126716;27;20039;-65
2021/10/03 10:09:32;;;;;;;11.77;5.25;;;;;;;25.86;33.71;100831.47;5126373;27;20194;-65
2021/10/03 10:12:06;;;;;;;12.07;5.65;;;;;;;25.38;34.48;100822.84;5123991;27;20462;-65
2021/10/03 10:14:47;;;;;;;8.15;4.80;;;;;;;24.95;35.63;100821.69;5126850;27;20046;-65
2021/10/03 10:17:36;;;;;;;10.57;5.03;;;;;;;24.60;36.36;100814.75;5128740;27;20075;-65
2021/10/03 10:20:25;;;;;;;10.40;5.65;;;;;;;24.26;37.05;100817.75;5127276;27;20047;-65
2021/10/03 10:23:01;;;;;;;10.38;5.45;;;;;;;24.01;37.44;100817.53;5119412;27;20038;-65
2021/10/03 10:25:39;;;;;;;9.13;5.03;;;;;;;23.78;37.32;100811.56;5125270;27;20078;-65
2021/10/03 10:28:08;;;;;;;13.40;5.47;;;;;;;23.56;38.05;100818.25;5127058;27;20039;-65
2021/10/03 10:30:35;;;;;;;12.10;5.50;;;;;;;23.39;38.50;100816.94;5125323;27;20035;-65
2021/10/03 10:33:10;;;;;;;12.18;5.95;;;;;;;23.23;39.02;100810.97;5127223;27;20015;-65
2021/10/03 10:35:36;;;;;;;8.63;5.70;;;;;;;23.07;39.42;100817.63;5126949;27;20031;-65
2021/10/03 10:38:01;;;;;;;6.97;5.25;;;;;;;22.90;39.64;100810.78;5127746;27;20382;-65
2021/10/03 10:40:32;;;;;;;11.25;5.80;;;;;;;22.75;40.06;100817.41;5126452;27;20039;-65
2021/10/03 10:43:03;;;;;;;11.90;5.88;;;;;;;22.65;40.52;100817.78;5126137;27;20023;-65
2021/10/03 10:45:33;;;;;;;10.77;5.85;;;;;;;22.54;40.66;100810.16;5126696;27;20401;-65
2021/10/03 10:48:13;;;;;;;11.70;5.72;;;;;;;22.45;41.06;100810.44;5127098;27;20438;-65
2021/10/03 10:50:54;;;;;;;9.43;6.03;;;;;;;22.35;41.29;100808.09;5126627;27;20322;-65
2021/10/03 10:53:31;;;;;;;12.60;6.13;;;;;;;22.30;41.90;100800.47;5126363;27;20038;-65
2021/10/03 10:56:08;;;;;;;12.73;5.80;;;;;;;22.30;41.30;100796.88;5126834;27;20131;-65
2021/10/03 10:58:38;;;;;;;8.18;5.85;;;;;;;22.23;41.96;100793.25;5124978;27;20134;-65
2021/10/03 11:01:12;;;;;;;6.95;5.75;;;;;;;22.20;42.10;100794.50;5124853;27;20031;-65
2021/10/03 11:03:44;;;;;;;;;;;;;;;22.11;42.23;100789.38;5125913;27;20043;-65
2021/10/03 11:06:11;;;;;;;7.45;5.05;;;;;;;22.10;42.37;100785.81;5126836;27;20335;-65
2021/10/03 11:08:58;;;;;;;12.82;7.35;;;;;;;22.07;42.61;100786.19;5125871;27;20066;-65
2021/10/03 11:11:38;;;;;;;12.02;6.53;;;;;;;22.03;42.61;100778.59;5123203;27;20023;-65
2021/10/03 11:14:06;;;;;;;9.25;5.75;;;;;;;22.00;42.62;100785.31;5128190;27;20390;-65
2021/10/03 11:16:43;;;;;;;10.30;6.57;;;;;;;21.98;42.87;100779.19;5126703;27;20114;-65
2021/10/03 11:19:32;;;;;;;11.45;5.68;;;;;;;21.95;43.00;100774.09;5126367;27;20039;-65
2021/10/03 11:22:22;;;;;;;8.88;5.82;;;;;;;21.93;43.44;100780.81;5124689;27;20482;-65